sensor_id;sensor_type;location;lat;lon;timestamp;P1;durP1;ratioP1;P2;durP2;ratioP2
16965;SDS011;8599;47.852;12.070;2022-10-16T00:01:36;2.30;;;2.07;;
16965;SDS011;8599;47.852;12.070;2022-10-16T00:04:04;2.27;;;1.93;;
16965;SDS011;8599;47.852;12.070;2022-10-16T00:06:32;3.50;;;2.53;;
16965;SDS011;8599;47.852;12.070;2022-10-16T00:08:59;5.87;;;2.07;;
16965;SDS011;8599;47.852;12.070;2022-10-16T00:11:27;2.23;;;1.93;;
16965;SDS011;8599;47.852;12.070;2022-10-16T00:13:56;2.50;;;2.30;;
16965;SDS011;8599;47.852;12.070;2022-10-16T00:16:24;2.33;;;2.10;;
16965;SDS011;8599;47.852;12.070;2022-10-16T00:18:51;2.47;;;2.10;;
16965;SDS011;8599;47.852;12.070;2022-10-16T00:21:19;3.63;;;2.10;;
16965;SDS011;8599;47.852;12.070;2022-10-16T00:23:51;3.83;;;2.13;;
16965;SDS011;8599;47.852;12.070;2022-10-16T00:26:18;2.20;;;2.00;;
16965;SDS011;8599;47.852;12.070;2022-10-16T00:28:45;2.47;;;2.20;;
16965;SDS011;8599;47.852;12.070;2022-10-16T00:31:13;5.10;;;2.00;;
16965;SDS011;8599;47.852;12.070;2022-10-16T00:33:40;8.10;;;2.73;;
16965;SDS011;8599;47.852;12.070;2022-10-16T00:36:08;2.87;;;2.13;;
16965;SDS011;8599;47.852;12.070;2022-10-16T00:38:37;2.50;;;2.30;;
16965;SDS011;8599;47.852;12.070;2022-10-16T00:41:06;2.67;;;2.07;;
16965;SDS011;8599;47.852;12.070;2022-10-16T00:43:37;4.07;;;2.40;;
16965;SDS011;8599;47.852;12.070;2022-10-16T00:46:08;2.53;;;2.20;;
16965;SDS011;8599;47.852;12.070;2022-10-16T00:48:40;5.20;;;2.43;;
16965;SDS011;8599;47.852;12.070;2022-10-16T00:51:10;8.23;;;2.13;;
16965;SDS011;8599;47.852;12.070;2022-10-16T00:53:37;2.13;;;1.90;;
16965;SDS011;8599;47.852;12.070;2022-10-16T00:56:05;4.77;;;2.10;;
16965;SDS011;8599;47.852;12.070;2022-10-16T00:58:32;4.33;;;2.33;;
16965;SDS011;8599;47.852;12.070;2022-10-16T01:00:59;6.70;;;2.13;;
16965;SDS011;8599;47.852;12.070;2022-10-16T01:03:27;2.47;;;2.27;;
16965;SDS011;8599;47.852;12.070;2022-10-16T01:05:59;2.90;;;2.20;;
16965;SDS011;8599;47.852;12.070;2022-10-16T01:08:43;5.10;;;2.40;;
16965;SDS011;8599;47.852;12.070;2022-10-16T01:11:19;2.30;;;2.10;;
16965;SDS011;8599;47.852;12.070;2022-10-16T01:13:50;2.87;;;2.30;;
16965;SDS011;8599;47.852;12.070;2022-10-16T01:16:22;5.13;;;2.37;;
16965;SDS011;8599;47.852;12.070;2022-10-16T01:18:54;2.17;;;1.97;;
16965;SDS011;8599;47.852;12.070;2022-10-16T01:21:28;2.00;;;1.83;;
16965;SDS011;8599;47.852;12.070;2022-10-16T01:23:59;2.30;;;2.10;;
16965;SDS011;8599;47.852;12.070;2022-10-16T01:26:37;3.80;;;2.10;;
16965;SDS011;8599;47.852;12.070;2022-10-16T01:29:20;1.87;;;1.77;;
16965;SDS011;8599;47.852;12.070;2022-10-16T01:31:53;3.37;;;2.07;;
16965;SDS011;8599;47.852;12.070;2022-10-16T01:34:23;2.93;;;2.33;;
16965;SDS011;8599;47.852;12.070;2022-10-16T01:36:59;7.37;;;2.13;;
16965;SDS011;8599;47.852;12.070;2022-10-16T01:39:31;3.40;;;2.30;;
16965;SDS011;8599;47.852;12.070;2022-10-16T01:42:03;4.00;;;2.70;;
16965;SDS011;8599;47.852;12.070;2022-10-16T01:44:35;6.00;;;2.77;;
16965;SDS011;8599;47.852;12.070;2022-10-16T01:47:04;3.87;;;2.17;;
16965;SDS011;8599;47.852;12.070;2022-10-16T01:49:33;6.90;;;2.40;;
16965;SDS011;8599;47.852;12.070;2022-10-16T01:52:04;3.00;;;2.13;;
16965;SDS011;8599;47.852;12.070;2022-10-16T01:54:34;3.27;;;2.10;;
16965;SDS011;8599;47.852;12.070;2022-10-16T01:57:03;2.77;;;2.20;;
16965;SDS011;8599;47.852;12.070;2022-10-16T01:59:32;3.57;;;2.07;;
16965;SDS011;8599;47.852;12.070;2022-10-16T02:02:05;2.73;;;2.20;;
16965;SDS011;8599;47.852;12.070;2022-10-16T02:04:36;2.40;;;2.20;;
16965;SDS011;8599;47.852;12.070;2022-10-16T02:07:07;2.43;;;2.00;;
16965;SDS011;8599;47.852;12.070;2022-10-16T02:09:33;3.77;;;2.27;;
16965;SDS011;8599;47.852;12.070;2022-10-16T02:12:03;2.20;;;1.70;;
16965;SDS011;8599;47.852;12.070;2022-10-16T02:14:38;2.30;;;1.90;;
16965;SDS011;8599;47.852;12.070;2022-10-16T02:17:09;2.17;;;1.70;;
16965;SDS011;8599;47.852;12.070;2022-10-16T02:19:37;2.80;;;2.10;;
16965;SDS011;8599;47.852;12.070;2022-10-16T02:22:06;1.97;;;1.73;;
16965;SDS011;8599;47.852;12.070;2022-10-16T02:24:37;1.67;;;1.40;;
16965;SDS011;8599;47.852;12.070;2022-10-16T02:27:10;1.87;;;1.77;;
16965;SDS011;8599;47.852;12.070;2022-10-16T02:29:41;1.70;;;1.60;;
16965;SDS011;8599;47.852;12.070;2022-10-16T02:32:13;3.27;;;1.80;;
16965;SDS011;8599;47.852;12.070;2022-10-16T02:34:42;2.50;;;1.80;;
16965;SDS011;8599;47.852;12.070;2022-10-16T02:37:10;2.47;;;1.97;;
16965;SDS011;8599;47.852;12.070;2022-10-16T02:39:37;2.67;;;2.30;;
16965;SDS011;8599;47.852;12.070;2022-10-16T02:42:09;2.10;;;1.83;;
16965;SDS011;8599;47.852;12.070;2022-10-16T02:44:36;2.43;;;2.00;;
16965;SDS011;8599;47.852;12.070;2022-10-16T02:47:05;3.37;;;2.17;;
16965;SDS011;8599;47.852;12.070;2022-10-16T02:49:32;3.50;;;2.00;;
16965;SDS011;8599;47.852;12.070;2022-10-16T02:51:58;2.37;;;2.07;;
16965;SDS011;8599;47.852;12.070;2022-10-16T02:54:25;3.37;;;2.23;;
16965;SDS011;8599;47.852;12.070;2022-10-16T02:56:52;2.70;;;2.40;;
16965;SDS011;8599;47.852;12.070;2022-10-16T02:59:19;5.57;;;2.30;;
16965;SDS011;8599;47.852;12.070;2022-10-16T03:01:46;3.17;;;2.43;;
16965;SDS011;8599;47.852;12.070;2022-10-16T03:04:14;3.77;;;2.50;;
16965;SDS011;8599;47.852;12.070;2022-10-16T03:06:41;3.27;;;2.40;;
16965;SDS011;8599;47.852;12.070;2022-10-16T03:09:07;2.47;;;2.27;;
16965;SDS011;8599;47.852;12.070;2022-10-16T03:11:34;3.03;;;2.60;;
16965;SDS011;8599;47.852;12.070;2022-10-16T03:14:01;2.53;;;2.20;;
16965;SDS011;8599;47.852;12.070;2022-10-16T03:16:28;3.40;;;2.70;;
16965;SDS011;8599;47.852;12.070;2022-10-16T03:18:55;2.73;;;2.50;;
16965;SDS011;8599;47.852;12.070;2022-10-16T03:21:23;9.90;;;2.87;;
16965;SDS011;8599;47.852;12.070;2022-10-16T03:23:50;6.27;;;2.43;;
16965;SDS011;8599;47.852;12.070;2022-10-16T03:26:17;2.63;;;2.40;;
16965;SDS011;8599;47.852;12.070;2022-10-16T03:28:43;4.70;;;2.60;;
16965;SDS011;8599;47.852;12.070;2022-10-16T03:31:10;4.37;;;2.70;;
16965;SDS011;8599;47.852;12.070;2022-10-16T03:33:37;3.73;;;2.57;;
16965;SDS011;8599;47.852;12.070;2022-10-16T03:36:04;2.97;;;2.67;;
16965;SDS011;8599;47.852;12.070;2022-10-16T03:38:32;4.03;;;2.77;;
16965;SDS011;8599;47.852;12.070;2022-10-16T03:40:59;3.60;;;2.87;;
16965;SDS011;8599;47.852;12.070;2022-10-16T03:43:26;5.13;;;2.47;;
16965;SDS011;8599;47.852;12.070;2022-10-16T03:45:53;3.10;;;2.67;;
16965;SDS011;8599;47.852;12.070;2022-10-16T03:48:20;2.97;;;2.37;;
16965;SDS011;8599;47.852;12.070;2022-10-16T03:50:46;2.67;;;2.33;;
16965;SDS011;8599;47.852;12.070;2022-10-16T03:53:13;3.17;;;2.60;;
16965;SDS011;8599;47.852;12.070;2022-10-16T03:55:42;4.57;;;3.10;;
16965;SDS011;8599;47.852;12.070;2022-10-16T03:58:09;2.83;;;2.50;;
16965;SDS011;8599;47.852;12.070;2022-10-16T04:00:39;4.30;;;2.80;;
16965;SDS011;8599;47.852;12.070;2022-10-16T04:03:06;3.20;;;2.90;;
16965;SDS011;8599;47.852;12.070;2022-10-16T04:05:33;3.10;;;2.17;;
16965;SDS011;8599;47.852;12.070;2022-10-16T04:08:00;5.47;;;2.73;;
16965;SDS011;8599;47.852;12.070;2022-10-16T04:10:27;3.77;;;2.53;;
16965;SDS011;8599;47.852;12.070;2022-10-16T04:12:55;3.53;;;2.63;;
16965;SDS011;8599;47.852;12.070;2022-10-16T04:15:22;2.83;;;2.30;;
16965;SDS011;8599;47.852;12.070;2022-10-16T04:17:49;4.33;;;2.70;;
16965;SDS011;8599;47.852;12.070;2022-10-16T04:20:16;3.40;;;2.70;;
16965;SDS011;8599;47.852;12.070;2022-10-16T04:22:43;2.43;;;2.23;;
16965;SDS011;8599;47.852;12.070;2022-10-16T04:25:10;3.57;;;2.40;;
16965;SDS011;8599;47.852;12.070;2022-10-16T04:27:38;6.63;;;2.50;;
16965;SDS011;8599;47.852;12.070;2022-10-16T04:30:07;2.60;;;2.40;;
16965;SDS011;8599;47.852;12.070;2022-10-16T04:32:34;3.20;;;2.50;;
16965;SDS011;8599;47.852;12.070;2022-10-16T04:35:01;2.77;;;2.33;;
16965;SDS011;8599;47.852;12.070;2022-10-16T04:37:28;3.53;;;2.53;;
16965;SDS011;8599;47.852;12.070;2022-10-16T04:39:55;2.30;;;2.10;;
16965;SDS011;8599;47.852;12.070;2022-10-16T04:42:21;3.17;;;2.27;;
16965;SDS011;8599;47.852;12.070;2022-10-16T04:44:48;3.70;;;2.40;;
16965;SDS011;8599;47.852;12.070;2022-10-16T04:47:16;3.27;;;2.23;;
16965;SDS011;8599;47.852;12.070;2022-10-16T04:49:43;4.77;;;2.20;;
16965;SDS011;8599;47.852;12.070;2022-10-16T04:52:10;4.83;;;2.63;;
16965;SDS011;8599;47.852;12.070;2022-10-16T04:54:37;3.73;;;2.77;;
16965;SDS011;8599;47.852;12.070;2022-10-16T04:57:03;3.30;;;2.43;;
16965;SDS011;8599;47.852;12.070;2022-10-16T04:59:30;2.30;;;2.07;;
16965;SDS011;8599;47.852;12.070;2022-10-16T05:01:57;2.50;;;2.30;;
16965;SDS011;8599;47.852;12.070;2022-10-16T05:04:25;3.60;;;1.93;;
16965;SDS011;8599;47.852;12.070;2022-10-16T05:06:52;4.00;;;2.47;;
16965;SDS011;8599;47.852;12.070;2022-10-16T05:09:19;4.23;;;2.63;;
16965;SDS011;8599;47.852;12.070;2022-10-16T05:11:46;2.90;;;2.53;;
16965;SDS011;8599;47.852;12.070;2022-10-16T05:14:12;3.23;;;2.90;;
16965;SDS011;8599;47.852;12.070;2022-10-16T05:16:39;3.70;;;2.30;;
16965;SDS011;8599;47.852;12.070;2022-10-16T05:19:06;2.47;;;2.27;;
16965;SDS011;8599;47.852;12.070;2022-10-16T05:21:34;3.00;;;2.10;;
16965;SDS011;8599;47.852;12.070;2022-10-16T05:24:01;2.97;;;1.73;;
16965;SDS011;8599;47.852;12.070;2022-10-16T05:26:28;5.40;;;2.50;;
16965;SDS011;8599;47.852;12.070;2022-10-16T05:28:55;2.97;;;2.03;;
16965;SDS011;8599;47.852;12.070;2022-10-16T05:31:22;3.23;;;2.53;;
16965;SDS011;8599;47.852;12.070;2022-10-16T05:33:48;2.30;;;2.10;;
16965;SDS011;8599;47.852;12.070;2022-10-16T05:36:15;2.57;;;2.37;;
16965;SDS011;8599;47.852;12.070;2022-10-16T05:38:44;2.50;;;2.23;;
16965;SDS011;8599;47.852;12.070;2022-10-16T05:41:11;2.47;;;1.90;;
16965;SDS011;8599;47.852;12.070;2022-10-16T05:43:38;2.20;;;2.00;;
16965;SDS011;8599;47.852;12.070;2022-10-16T05:46:05;2.53;;;2.27;;
16965;SDS011;8599;47.852;12.070;2022-10-16T05:48:32;6.50;;;2.20;;
16965;SDS011;8599;47.852;12.070;2022-10-16T05:51:00;4.40;;;2.30;;
16965;SDS011;8599;47.852;12.070;2022-10-16T05:53:29;4.53;;;2.67;;
16965;SDS011;8599;47.852;12.070;2022-10-16T05:55:58;3.93;;;2.07;;
16965;SDS011;8599;47.852;12.070;2022-10-16T05:58:28;2.57;;;2.10;;
16965;SDS011;8599;47.852;12.070;2022-10-16T06:00:56;2.17;;;1.80;;
16965;SDS011;8599;47.852;12.070;2022-10-16T06:03:23;8.53;;;2.60;;
16965;SDS011;8599;47.852;12.070;2022-10-16T06:05:50;3.07;;;2.40;;
16965;SDS011;8599;47.852;12.070;2022-10-16T06:08:18;4.13;;;2.00;;
16965;SDS011;8599;47.852;12.070;2022-10-16T06:10:46;2.77;;;2.57;;
16965;SDS011;8599;47.852;12.070;2022-10-16T06:13:15;2.67;;;2.23;;
16965;SDS011;8599;47.852;12.070;2022-10-16T06:15:42;2.87;;;2.30;;
16965;SDS011;8599;47.852;12.070;2022-10-16T06:18:09;3.23;;;2.40;;
16965;SDS011;8599;47.852;12.070;2022-10-16T06:20:36;2.47;;;2.20;;
16965;SDS011;8599;47.852;12.070;2022-10-16T06:23:03;4.37;;;2.40;;
16965;SDS011;8599;47.852;12.070;2022-10-16T06:25:30;2.43;;;2.23;;
16965;SDS011;8599;47.852;12.070;2022-10-16T06:27:57;2.90;;;2.20;;
16965;SDS011;8599;47.852;12.070;2022-10-16T06:30:25;3.87;;;2.13;;
16965;SDS011;8599;47.852;12.070;2022-10-16T06:32:52;2.57;;;2.30;;
16965;SDS011;8599;47.852;12.070;2022-10-16T06:35:19;3.57;;;2.60;;
16965;SDS011;8599;47.852;12.070;2022-10-16T06:37:45;3.20;;;2.30;;
16965;SDS011;8599;47.852;12.070;2022-10-16T06:40:12;2.20;;;2.00;;
16965;SDS011;8599;47.852;12.070;2022-10-16T06:42:40;3.50;;;2.60;;
16965;SDS011;8599;47.852;12.070;2022-10-16T06:45:07;2.93;;;2.00;;
16965;SDS011;8599;47.852;12.070;2022-10-16T06:47:35;2.90;;;2.10;;
16965;SDS011;8599;47.852;12.070;2022-10-16T06:50:03;3.80;;;2.10;;
16965;SDS011;8599;47.852;12.070;2022-10-16T06:52:31;2.27;;;2.07;;
16965;SDS011;8599;47.852;12.070;2022-10-16T06:54:58;2.20;;;2.00;;
16965;SDS011;8599;47.852;12.070;2022-10-16T06:57:25;1.93;;;1.83;;
16965;SDS011;8599;47.852;12.070;2022-10-16T06:59:52;2.60;;;1.83;;
16965;SDS011;8599;47.852;12.070;2022-10-16T07:02:19;1.90;;;1.70;;
16965;SDS011;8599;47.852;12.070;2022-10-16T07:04:47;2.03;;;1.77;;
16965;SDS011;8599;47.852;12.070;2022-10-16T07:07:14;3.03;;;2.10;;
16965;SDS011;8599;47.852;12.070;2022-10-16T07:09:40;2.87;;;2.30;;
16965;SDS011;8599;47.852;12.070;2022-10-16T07:12:07;2.13;;;1.93;;
16965;SDS011;8599;47.852;12.070;2022-10-16T07:14:34;2.00;;;1.80;;
16965;SDS011;8599;47.852;12.070;2022-10-16T07:17:01;2.70;;;1.90;;
16965;SDS011;8599;47.852;12.070;2022-10-16T07:19:28;3.47;;;1.97;;
16965;SDS011;8599;47.852;12.070;2022-10-16T07:21:56;2.03;;;1.80;;
16965;SDS011;8599;47.852;12.070;2022-10-16T07:24:23;2.73;;;1.70;;
16965;SDS011;8599;47.852;12.070;2022-10-16T07:26:50;2.23;;;2.00;;
16965;SDS011;8599;47.852;12.070;2022-10-16T07:29:18;2.73;;;2.13;;
16965;SDS011;8599;47.852;12.070;2022-10-16T07:31:46;1.60;;;1.50;;
16965;SDS011;8599;47.852;12.070;2022-10-16T07:34:14;2.50;;;2.00;;
16965;SDS011;8599;47.852;12.070;2022-10-16T07:36:42;3.77;;;1.90;;
16965;SDS011;8599;47.852;12.070;2022-10-16T07:39:10;2.83;;;1.97;;
16965;SDS011;8599;47.852;12.070;2022-10-16T07:41:37;2.30;;;2.10;;
16965;SDS011;8599;47.852;12.070;2022-10-16T07:44:04;3.47;;;2.43;;
16965;SDS011;8599;47.852;12.070;2022-10-16T07:46:31;2.83;;;2.17;;
16965;SDS011;8599;47.852;12.070;2022-10-16T07:49:00;3.57;;;2.13;;
16965;SDS011;8599;47.852;12.070;2022-10-16T07:51:27;2.50;;;2.13;;
16965;SDS011;8599;47.852;12.070;2022-10-16T07:53:54;2.43;;;2.00;;
16965;SDS011;8599;47.852;12.070;2022-10-16T07:56:23;2.30;;;2.10;;
16965;SDS011;8599;47.852;12.070;2022-10-16T07:58:50;2.50;;;2.17;;
16965;SDS011;8599;47.852;12.070;2022-10-16T08:01:17;2.30;;;1.93;;
16965;SDS011;8599;47.852;12.070;2022-10-16T08:03:44;3.03;;;2.03;;
16965;SDS011;8599;47.852;12.070;2022-10-16T08:06:12;2.67;;;1.93;;
16965;SDS011;8599;47.852;12.070;2022-10-16T08:08:39;2.37;;;1.87;;
16965;SDS011;8599;47.852;12.070;2022-10-16T08:11:06;2.27;;;2.07;;
16965;SDS011;8599;47.852;12.070;2022-10-16T08:13:35;2.00;;;1.80;;
16965;SDS011;8599;47.852;12.070;2022-10-16T08:16:01;1.80;;;1.70;;
16965;SDS011;8599;47.852;12.070;2022-10-16T08:18:32;2.87;;;2.07;;
16965;SDS011;8599;47.852;12.070;2022-10-16T08:20:59;2.23;;;1.93;;
16965;SDS011;8599;47.852;12.070;2022-10-16T08:23:26;2.13;;;1.97;;
16965;SDS011;8599;47.852;12.070;2022-10-16T08:25:54;2.10;;;2.00;;
16965;SDS011;8599;47.852;12.070;2022-10-16T08:28:21;2.50;;;2.00;;
16965;SDS011;8599;47.852;12.070;2022-10-16T08:30:50;2.10;;;1.90;;
16965;SDS011;8599;47.852;12.070;2022-10-16T08:33:17;2.10;;;1.93;;
16965;SDS011;8599;47.852;12.070;2022-10-16T08:35:49;2.20;;;1.90;;
16965;SDS011;8599;47.852;12.070;2022-10-16T08:38:18;3.47;;;2.10;;
16965;SDS011;8599;47.852;12.070;2022-10-16T08:40:45;1.77;;;1.60;;
16965;SDS011;8599;47.852;12.070;2022-10-16T08:43:21;3.57;;;2.00;;
16965;SDS011;8599;47.852;12.070;2022-10-16T08:46:09;2.50;;;2.30;;
16965;SDS011;8599;47.852;12.070;2022-10-16T08:48:46;2.97;;;1.97;;
16965;SDS011;8599;47.852;12.070;2022-10-16T08:51:17;2.03;;;1.90;;
16965;SDS011;8599;47.852;12.070;2022-10-16T08:53:49;2.20;;;1.77;;
16965;SDS011;8599;47.852;12.070;2022-10-16T08:56:20;4.07;;;1.93;;
16965;SDS011;8599;47.852;12.070;2022-10-16T08:58:47;2.50;;;2.30;;
16965;SDS011;8599;47.852;12.070;2022-10-16T09:01:19;2.00;;;1.80;;
16965;SDS011;8599;47.852;12.070;2022-10-16T09:04:01;2.87;;;2.03;;
16965;SDS011;8599;47.852;12.070;2022-10-16T09:06:56;1.70;;;1.60;;
16965;SDS011;8599;47.852;12.070;2022-10-16T09:09:35;2.03;;;1.93;;
16965;SDS011;8599;47.852;12.070;2022-10-16T09:12:17;1.93;;;1.80;;
16965;SDS011;8599;47.852;12.070;2022-10-16T09:14:52;1.83;;;1.60;;
16965;SDS011;8599;47.852;12.070;2022-10-16T09:17:32;2.90;;;2.00;;
16965;SDS011;8599;47.852;12.070;2022-10-16T09:20:12;2.93;;;2.17;;
16965;SDS011;8599;47.852;12.070;2022-10-16T09:22:45;2.30;;;2.10;;
16965;SDS011;8599;47.852;12.070;2022-10-16T09:25:13;2.83;;;2.00;;
16965;SDS011;8599;47.852;12.070;2022-10-16T09:27:42;5.20;;;1.73;;
16965;SDS011;8599;47.852;12.070;2022-10-16T09:30:12;5.27;;;2.40;;
16965;SDS011;8599;47.852;12.070;2022-10-16T09:32:42;7.90;;;2.10;;
16965;SDS011;8599;47.852;12.070;2022-10-16T09:35:13;2.37;;;2.07;;
16965;SDS011;8599;47.852;12.070;2022-10-16T09:37:42;4.00;;;1.90;;
16965;SDS011;8599;47.852;12.070;2022-10-16T09:40:13;2.30;;;2.10;;
16965;SDS011;8599;47.852;12.070;2022-10-16T09:42:52;2.07;;;1.93;;
16965;SDS011;8599;47.852;12.070;2022-10-16T09:45:38;3.13;;;2.20;;
16965;SDS011;8599;47.852;12.070;2022-10-16T09:48:11;3.57;;;2.20;;
16965;SDS011;8599;47.852;12.070;2022-10-16T09:50:39;5.90;;;1.97;;
16965;SDS011;8599;47.852;12.070;2022-10-16T09:53:08;2.77;;;2.13;;
16965;SDS011;8599;47.852;12.070;2022-10-16T09:55:47;1.70;;;1.60;;
16965;SDS011;8599;47.852;12.070;2022-10-16T09:58:15;2.57;;;1.93;;
16965;SDS011;8599;47.852;12.070;2022-10-16T10:00:42;4.63;;;2.03;;
16965;SDS011;8599;47.852;12.070;2022-10-16T10:03:32;2.37;;;2.17;;
16965;SDS011;8599;47.852;12.070;2022-10-16T10:06:04;6.73;;;2.00;;
16965;SDS011;8599;47.852;12.070;2022-10-16T10:08:41;2.20;;;1.97;;
16965;SDS011;8599;47.852;12.070;2022-10-16T10:11:18;2.97;;;2.17;;
16965;SDS011;8599;47.852;12.070;2022-10-16T10:13:45;3.80;;;2.37;;
16965;SDS011;8599;47.852;12.070;2022-10-16T10:16:11;4.50;;;2.07;;
16965;SDS011;8599;47.852;12.070;2022-10-16T10:18:39;2.50;;;2.30;;
16965;SDS011;8599;47.852;12.070;2022-10-16T10:21:12;2.70;;;2.20;;
16965;SDS011;8599;47.852;12.070;2022-10-16T10:23:43;2.95;;;2.33;;
16965;SDS011;8599;47.852;12.070;2022-10-16T10:26:10;2.30;;;1.90;;
16965;SDS011;8599;47.852;12.070;2022-10-16T10:28:44;2.53;;;2.33;;
16965;SDS011;8599;47.852;12.070;2022-10-16T10:31:20;3.07;;;2.00;;
16965;SDS011;8599;47.852;12.070;2022-10-16T10:33:57;3.07;;;2.23;;
16965;SDS011;8599;47.852;12.070;2022-10-16T10:36:39;2.60;;;1.83;;
16965;SDS011;8599;47.852;12.070;2022-10-16T10:39:08;4.25;;;2.08;;
16965;SDS011;8599;47.852;12.070;2022-10-16T10:41:54;2.80;;;2.10;;
16965;SDS011;8599;47.852;12.070;2022-10-16T10:44:55;2.17;;;2.00;;
16965;SDS011;8599;47.852;12.070;2022-10-16T10:47:39;3.03;;;2.40;;
16965;SDS011;8599;47.852;12.070;2022-10-16T10:50:17;1.95;;;1.70;;
16965;SDS011;8599;47.852;12.070;2022-10-16T10:52:52;3.20;;;2.30;;
16965;SDS011;8599;47.852;12.070;2022-10-16T10:55:28;2.28;;;2.03;;
16965;SDS011;8599;47.852;12.070;2022-10-16T10:58:13;2.08;;;1.88;;
16965;SDS011;8599;47.852;12.070;2022-10-16T11:01:04;2.20;;;1.92;;
16965;SDS011;8599;47.852;12.070;2022-10-16T11:03:41;2.70;;;2.03;;
16965;SDS011;8599;47.852;12.070;2022-10-16T11:06:20;10.38;;;1.95;;
16965;SDS011;8599;47.852;12.070;2022-10-16T11:08:51;2.25;;;1.98;;
16965;SDS011;8599;47.852;12.070;2022-10-16T11:11:23;2.17;;;1.90;;
16965;SDS011;8599;47.852;12.070;2022-10-16T11:13:54;3.45;;;1.90;;
16965;SDS011;8599;47.852;12.070;2022-10-16T11:16:26;2.95;;;1.90;;
16965;SDS011;8599;47.852;12.070;2022-10-16T11:18:56;2.33;;;1.83;;
16965;SDS011;8599;47.852;12.070;2022-10-16T11:21:37;4.20;;;2.00;;
16965;SDS011;8599;47.852;12.070;2022-10-16T11:24:14;3.40;;;2.00;;
16965;SDS011;8599;47.852;12.070;2022-10-16T11:26:45;8.27;;;1.70;;
16965;SDS011;8599;47.852;12.070;2022-10-16T11:29:16;2.97;;;2.28;;
16965;SDS011;8599;47.852;12.070;2022-10-16T11:31:47;4.75;;;1.90;;
16965;SDS011;8599;47.852;12.070;2022-10-16T11:34:21;2.60;;;1.83;;
16965;SDS011;8599;47.852;12.070;2022-10-16T11:36:53;3.15;;;2.33;;
16965;SDS011;8599;47.852;12.070;2022-10-16T11:39:25;2.30;;;2.08;;
16965;SDS011;8599;47.852;12.070;2022-10-16T11:41:55;2.35;;;1.95;;
16965;SDS011;8599;47.852;12.070;2022-10-16T11:44:34;2.45;;;2.20;;
16965;SDS011;8599;47.852;12.070;2022-10-16T11:47:11;2.50;;;2.00;;
16965;SDS011;8599;47.852;12.070;2022-10-16T11:49:45;3.80;;;1.80;;
16965;SDS011;8599;47.852;12.070;2022-10-16T11:52:19;2.65;;;1.92;;
16965;SDS011;8599;47.852;12.070;2022-10-16T11:54:52;4.72;;;2.10;;
16965;SDS011;8599;47.852;12.070;2022-10-16T11:57:23;1.90;;;1.80;;
16965;SDS011;8599;47.852;12.070;2022-10-16T11:59:53;3.00;;;1.95;;
16965;SDS011;8599;47.852;12.070;2022-10-16T12:02:26;3.20;;;2.20;;
16965;SDS011;8599;47.852;12.070;2022-10-16T12:05:02;2.22;;;1.70;;
16965;SDS011;8599;47.852;12.070;2022-10-16T12:07:41;3.72;;;1.80;;
16965;SDS011;8599;47.852;12.070;2022-10-16T12:10:18;2.25;;;1.60;;
16965;SDS011;8599;47.852;12.070;2022-10-16T12:12:47;2.88;;;2.03;;
16965;SDS011;8599;47.852;12.070;2022-10-16T12:15:19;2.15;;;1.63;;
16965;SDS011;8599;47.852;12.070;2022-10-16T12:17:48;2.20;;;1.70;;
16965;SDS011;8599;47.852;12.070;2022-10-16T12:20:19;2.47;;;1.77;;
16965;SDS011;8599;47.852;12.070;2022-10-16T12:22:53;2.22;;;1.70;;
16965;SDS011;8599;47.852;12.070;2022-10-16T12:25:24;2.10;;;1.90;;
16965;SDS011;8599;47.852;12.070;2022-10-16T12:27:57;2.30;;;1.90;;
16965;SDS011;8599;47.852;12.070;2022-10-16T12:30:26;1.60;;;1.50;;
16965;SDS011;8599;47.852;12.070;2022-10-16T12:32:55;2.15;;;1.85;;
16965;SDS011;8599;47.852;12.070;2022-10-16T12:35:24;2.97;;;1.90;;
16965;SDS011;8599;47.852;12.070;2022-10-16T12:38:03;1.90;;;1.80;;
16965;SDS011;8599;47.852;12.070;2022-10-16T12:40:32;1.95;;;1.73;;
16965;SDS011;8599;47.852;12.070;2022-10-16T12:43:10;1.70;;;1.50;;
16965;SDS011;8599;47.852;12.070;2022-10-16T12:45:39;5.72;;;1.70;;
16965;SDS011;8599;47.852;12.070;2022-10-16T12:48:18;1.67;;;1.58;;
16965;SDS011;8599;47.852;12.070;2022-10-16T12:50:46;1.88;;;1.45;;
16965;SDS011;8599;47.852;12.070;2022-10-16T12:53:21;1.60;;;1.50;;
16965;SDS011;8599;47.852;12.070;2022-10-16T12:55:58;1.65;;;1.55;;
16965;SDS011;8599;47.852;12.070;2022-10-16T12:58:40;3.58;;;1.88;;
16965;SDS011;8599;47.852;12.070;2022-10-16T13:01:18;3.88;;;1.23;;
16965;SDS011;8599;47.852;12.070;2022-10-16T13:03:59;2.92;;;1.40;;
16965;SDS011;8599;47.852;12.070;2022-10-16T13:06:40;2.05;;;1.33;;
16965;SDS011;8599;47.852;12.070;2022-10-16T13:09:22;3.35;;;1.67;;
16965;SDS011;8599;47.852;12.070;2022-10-16T13:15:18;1.60;;;1.50;;
16965;SDS011;8599;47.852;12.070;2022-10-16T13:17:57;1.55;;;1.45;;
16965;SDS011;8599;47.852;12.070;2022-10-16T13:20:32;1.50;;;1.40;;
16965;SDS011;8599;47.852;12.070;2022-10-16T13:23:08;1.27;;;1.15;;
16965;SDS011;8599;47.852;12.070;2022-10-16T13:25:46;1.63;;;1.52;;
16965;SDS011;8599;47.852;12.070;2022-10-16T13:28:27;1.73;;;1.50;;
16965;SDS011;8599;47.852;12.070;2022-10-16T13:30:57;6.78;;;1.60;;
16965;SDS011;8599;47.852;12.070;2022-10-16T13:33:27;1.20;;;1.10;;
16965;SDS011;8599;47.852;12.070;2022-10-16T13:35:58;2.22;;;1.50;;
16965;SDS011;8599;47.852;12.070;2022-10-16T13:38:25;5.60;;;1.40;;
16965;SDS011;8599;47.852;12.070;2022-10-16T13:40:55;1.45;;;1.20;;
16965;SDS011;8599;47.852;12.070;2022-10-16T13:43:25;1.33;;;1.23;;
16965;SDS011;8599;47.852;12.070;2022-10-16T13:45:55;1.73;;;1.50;;
16965;SDS011;8599;47.852;12.070;2022-10-16T13:48:24;4.65;;;3.15;;
16965;SDS011;8599;47.852;12.070;2022-10-16T13:51:01;3.20;;;1.70;;
16965;SDS011;8599;47.852;12.070;2022-10-16T13:53:30;1.42;;;1.33;;
16965;SDS011;8599;47.852;12.070;2022-10-16T13:55:59;1.58;;;1.10;;
16965;SDS011;8599;47.852;12.070;2022-10-16T13:58:28;1.35;;;1.20;;
16965;SDS011;8599;47.852;12.070;2022-10-16T14:00:56;1.73;;;1.63;;
16965;SDS011;8599;47.852;12.070;2022-10-16T14:03:24;1.50;;;1.40;;
16965;SDS011;8599;47.852;12.070;2022-10-16T14:05:52;1.75;;;1.50;;
16965;SDS011;8599;47.852;12.070;2022-10-16T14:08:21;1.35;;;1.23;;
16965;SDS011;8599;47.852;12.070;2022-10-16T14:10:50;1.67;;;1.50;;
16965;SDS011;8599;47.852;12.070;2022-10-16T14:13:22;2.65;;;1.52;;
16965;SDS011;8599;47.852;12.070;2022-10-16T14:15:54;1.15;;;1.05;;
16965;SDS011;8599;47.852;12.070;2022-10-16T14:18:24;1.40;;;1.30;;
16965;SDS011;8599;47.852;12.070;2022-10-16T14:20:53;0.95;;;0.90;;
16965;SDS011;8599;47.852;12.070;2022-10-16T14:23:21;0.88;;;0.80;;
16965;SDS011;8599;47.852;12.070;2022-10-16T14:25:54;0.98;;;0.98;;
16965;SDS011;8599;47.852;12.070;2022-10-16T14:28:32;0.93;;;0.50;;
16965;SDS011;8599;47.852;12.070;2022-10-16T14:30:59;0.98;;;0.90;;
16965;SDS011;8599;47.852;12.070;2022-10-16T14:33:31;0.77;;;0.77;;
16965;SDS011;8599;47.852;12.070;2022-10-16T14:36:03;1.30;;;1.20;;
16965;SDS011;8599;47.852;12.070;2022-10-16T14:38:31;0.60;;;0.60;;
16965;SDS011;8599;47.852;12.070;2022-10-16T14:40:59;0.60;;;0.52;;
16965;SDS011;8599;47.852;12.070;2022-10-16T14:43:29;0.80;;;0.80;;
16965;SDS011;8599;47.852;12.070;2022-10-16T14:46:00;0.80;;;0.80;;
16965;SDS011;8599;47.852;12.070;2022-10-16T14:48:29;0.75;;;0.70;;
16965;SDS011;8599;47.852;12.070;2022-10-16T14:50:56;0.55;;;0.55;;
16965;SDS011;8599;47.852;12.070;2022-10-16T14:53:23;0.82;;;0.70;;
16965;SDS011;8599;47.852;12.070;2022-10-16T14:55:50;0.50;;;0.50;;
16965;SDS011;8599;47.852;12.070;2022-10-16T14:58:17;0.65;;;0.65;;
16965;SDS011;8599;47.852;12.070;2022-10-16T15:00:48;2.83;;;0.90;;
16965;SDS011;8599;47.852;12.070;2022-10-16T15:03:15;0.90;;;0.80;;
16965;SDS011;8599;47.852;12.070;2022-10-16T15:05:42;0.93;;;0.70;;
16965;SDS011;8599;47.852;12.070;2022-10-16T15:08:09;0.68;;;0.68;;
16965;SDS011;8599;47.852;12.070;2022-10-16T15:10:38;0.77;;;0.75;;